createdAt,value
2023-05-10T00:00:58.498Z,9.98
2023-05-10T00:03:25.693Z,10.31
2023-05-10T00:05:52.800Z,10.32
2023-05-10T00:08:19.921Z,10.25
2023-05-10T00:10:46.953Z,10.32
2023-05-10T00:13:14.270Z,10.31
2023-05-10T00:15:41.423Z,10.28
2023-05-10T00:18:08.595Z,10.00
2023-05-10T00:20:35.625Z,10.32
2023-05-10T00:23:02.594Z,10.30
2023-05-10T00:25:29.661Z,10.30
2023-05-10T00:27:58.296Z,10.32
2023-05-10T00:30:25.702Z,9.98
2023-05-10T00:32:53.118Z,10.21
2023-05-10T00:35:20.482Z,10.26
2023-05-10T00:37:48.844Z,10.12
2023-05-10T00:40:16.398Z,9.92
2023-05-10T00:42:47.904Z,9.97
2023-05-10T00:45:14.930Z,9.96
2023-05-10T00:47:42.125Z,10.06
2023-05-10T00:50:10.292Z,9.87
2023-05-10T00:52:37.548Z,10.14
2023-05-10T00:55:05.663Z,9.82
2023-05-10T00:57:32.840Z,10.21
2023-05-10T01:00:00.598Z,10.19
2023-05-10T01:02:28.480Z,10.14
2023-05-10T01:04:57.636Z,10.21
2023-05-10T01:07:24.731Z,10.07
2023-05-10T01:09:51.754Z,10.04
2023-05-10T01:12:19.020Z,10.02
2023-05-10T01:14:46.480Z,9.92
2023-05-10T01:17:14.655Z,10.02
2023-05-10T01:19:42.708Z,10.02
2023-05-10T01:22:29.463Z,10.02
2023-05-10T01:25:28.711Z,9.99
2023-05-10T01:28:07.721Z,10.01
2023-05-10T01:31:09.844Z,10.02
2023-05-10T01:34:00.266Z,10.00
2023-05-10T01:36:49.390Z,9.81
2023-05-10T01:39:31.386Z,9.89
2023-05-10T01:42:01.473Z,9.90
2023-05-10T01:44:51.956Z,9.84
2023-05-10T01:47:44.100Z,9.90
2023-05-10T01:50:18.317Z,9.95
2023-05-10T01:52:52.333Z,10.04
2023-05-10T01:55:22.203Z,9.99
2023-05-10T01:57:57.881Z,10.01
2023-05-10T02:00:26.153Z,9.99
2023-05-10T02:02:55.458Z,10.06
2023-05-10T02:05:23.624Z,9.73
2023-05-10T02:07:51.796Z,10.06
2023-05-10T02:10:20.762Z,10.01
2023-05-10T02:12:51.124Z,10.03
2023-05-10T02:15:24.239Z,9.96
2023-05-10T02:17:53.683Z,10.05
2023-05-10T02:20:22.082Z,10.03
2023-05-10T02:22:51.720Z,10.11
2023-05-10T02:25:21.367Z,10.07
2023-05-10T02:27:49.471Z,10.15
2023-05-10T02:30:18.116Z,10.20
2023-05-10T02:32:46.651Z,10.20
2023-05-10T02:35:14.476Z,10.18
2023-05-10T02:37:43.075Z,10.06
2023-05-10T02:40:12.000Z,10.08
2023-05-10T02:42:43.285Z,10.12
2023-05-10T02:45:14.468Z,10.20
2023-05-10T02:47:44.822Z,10.03
2023-05-10T02:50:12.204Z,10.27
2023-05-10T02:52:53.189Z,10.30
2023-05-10T02:55:23.816Z,10.34
2023-05-10T02:57:57.923Z,10.36
2023-05-10T03:00:26.634Z,10.27
2023-05-10T03:02:53.928Z,10.37
2023-05-10T03:05:21.627Z,10.36
2023-05-10T03:07:49.680Z,10.28
2023-05-10T03:10:17.172Z,10.41
2023-05-10T03:12:51.249Z,10.41
2023-05-10T03:15:45.694Z,10.44
2023-05-10T03:18:22.418Z,10.29
2023-05-10T03:20:52.092Z,10.37
2023-05-10T03:23:19.007Z,10.50
2023-05-10T03:25:49.526Z,10.61
2023-05-10T03:28:18.897Z,10.54
2023-05-10T03:30:47.793Z,10.65
2023-05-10T03:33:15.372Z,10.66
2023-05-10T03:35:46.996Z,10.75
2023-05-10T03:38:15.257Z,10.80
2023-05-10T03:40:42.404Z,10.82
2023-05-10T03:43:09.578Z,10.79
2023-05-10T03:45:36.801Z,10.66
2023-05-10T03:48:04.491Z,10.82
2023-05-10T03:50:31.814Z,10.86
2023-05-10T03:52:59.244Z,10.84
2023-05-10T03:55:28.186Z,10.64
2023-05-10T03:57:55.376Z,10.96
2023-05-10T04:00:23.673Z,11.03
2023-05-10T04:02:54.593Z,11.09
2023-05-10T04:05:21.740Z,11.15
2023-05-10T04:07:50.367Z,11.12
2023-05-10T04:10:17.941Z,11.21
2023-05-10T04:12:47.089Z,11.27
2023-05-10T04:15:14.482Z,11.29
2023-05-10T04:17:41.624Z,11.30
2023-05-10T04:20:09.461Z,11.31
2023-05-10T04:22:36.834Z,11.36
2023-05-10T04:25:04.275Z,11.48
2023-05-10T04:27:32.173Z,11.51
2023-05-10T04:29:59.200Z,11.56
2023-05-10T04:32:26.174Z,11.60
2023-05-10T04:34:54.186Z,11.60
2023-05-10T04:37:22.502Z,11.73
2023-05-10T04:39:49.639Z,11.84
2023-05-10T04:42:16.714Z,11.93
2023-05-10T04:44:43.885Z,12.01
2023-05-10T04:47:12.722Z,12.09
2023-05-10T04:49:40.172Z,12.10
2023-05-10T04:52:07.383Z,12.12
2023-05-10T04:54:34.521Z,12.21
2023-05-10T04:57:01.559Z,12.25
2023-05-10T04:59:28.563Z,12.22
2023-05-10T05:01:55.593Z,12.36
2023-05-10T05:04:24.522Z,12.43
2023-05-10T05:06:53.743Z,12.48
2023-05-10T05:09:21.075Z,12.46
2023-05-10T05:11:48.076Z,12.50
2023-05-10T05:14:15.090Z,12.74
2023-05-10T05:16:42.188Z,12.79
2023-05-10T05:19:09.261Z,12.90
2023-05-10T05:21:36.703Z,12.68
2023-05-10T05:24:03.926Z,12.99
2023-05-10T05:26:30.947Z,13.07
2023-05-10T05:28:58.085Z,13.25
2023-05-10T05:31:25.252Z,13.33
2023-05-10T05:33:52.759Z,13.43
2023-05-10T05:36:19.840Z,13.50
2023-05-10T05:38:46.826Z,13.60
2023-05-10T05:41:13.822Z,13.74
2023-05-10T05:43:40.877Z,13.83
2023-05-10T05:46:08.011Z,13.78
2023-05-10T05:48:35.061Z,14.04
2023-05-10T05:51:02.842Z,14.10
2023-05-10T05:53:30.423Z,14.12
2023-05-10T05:55:59.055Z,14.16
2023-05-10T05:58:27.024Z,14.13
2023-05-10T06:00:54.139Z,14.14
2023-05-10T06:03:21.774Z,14.18
2023-05-10T06:05:49.311Z,14.19
2023-05-10T06:08:16.510Z,14.30
2023-05-10T06:10:43.614Z,14.31
2023-05-10T06:13:11.049Z,14.37
2023-05-10T06:15:38.610Z,14.26
2023-05-10T06:18:06.653Z,14.43
2023-05-10T06:20:33.751Z,14.49
2023-05-10T06:23:00.833Z,14.44
2023-05-10T06:25:27.821Z,14.52
2023-05-10T06:27:58.509Z,14.65
2023-05-10T06:30:29.863Z,14.63
2023-05-10T06:32:58.200Z,14.73
2023-05-10T06:35:25.721Z,14.80
2023-05-10T06:37:52.962Z,14.94
2023-05-10T06:40:20.403Z,15.01
2023-05-10T06:42:51.376Z,15.15
2023-05-10T06:45:18.982Z,15.17
2023-05-10T06:47:46.971Z,15.31
2023-05-10T06:50:14.285Z,15.33
2023-05-10T06:52:41.401Z,15.38
2023-05-10T06:55:09.851Z,15.42
2023-05-10T06:57:37.220Z,15.45
2023-05-10T07:00:07.378Z,15.42
2023-05-10T07:02:35.290Z,15.45
2023-05-10T07:05:03.704Z,15.53
2023-05-10T07:07:32.737Z,15.64
2023-05-10T07:10:00.198Z,15.83
2023-05-10T07:12:27.594Z,15.93
2023-05-10T07:14:54.884Z,15.93
2023-05-10T07:17:21.989Z,15.98
2023-05-10T07:19:49.545Z,16.16
2023-05-10T07:22:17.921Z,16.27
2023-05-10T07:24:45.408Z,16.37
2023-05-10T07:27:12.549Z,16.49
2023-05-10T07:29:39.941Z,16.54
2023-05-10T07:32:07.385Z,16.48
2023-05-10T07:34:34.553Z,16.59
2023-05-10T07:37:02.415Z,16.73
2023-05-10T07:39:29.478Z,16.82
2023-05-10T07:41:56.883Z,16.91
2023-05-10T07:44:24.411Z,16.95
2023-05-10T07:46:51.786Z,17.10
2023-05-10T07:49:18.906Z,17.10
2023-05-10T07:51:46.024Z,17.22
2023-05-10T07:54:13.800Z,17.27
2023-05-10T07:56:45.797Z,17.41
2023-05-10T07:59:17.252Z,17.40
2023-05-10T08:01:45.642Z,17.40
2023-05-10T08:04:12.963Z,17.41
2023-05-10T08:06:40.970Z,17.50
2023-05-10T08:09:08.512Z,17.64
2023-05-10T08:11:36.285Z,17.78
2023-05-10T08:14:03.438Z,17.87
2023-05-10T08:16:30.540Z,17.94
2023-05-10T08:18:57.752Z,18.00
2023-05-10T08:21:25.057Z,18.01
2023-05-10T08:23:52.208Z,17.97
2023-05-10T08:26:19.256Z,18.20
2023-05-10T08:28:46.290Z,18.29
2023-05-10T08:31:13.340Z,18.44
2023-05-10T08:33:42.283Z,18.36
2023-05-10T08:36:10.884Z,18.34
2023-05-10T08:38:39.030Z,18.31
2023-05-10T08:41:07.235Z,18.47
2023-05-10T08:43:36.989Z,18.64
2023-05-10T08:46:06.455Z,18.84
2023-05-10T08:48:35.685Z,19.06
2023-05-10T08:51:04.828Z,19.18
2023-05-10T08:53:34.254Z,19.14
2023-05-10T08:56:02.954Z,19.47
2023-05-10T08:58:30.049Z,19.41
2023-05-10T09:00:58.194Z,19.31
2023-05-10T09:03:25.369Z,19.14
2023-05-10T09:05:52.920Z,18.96
2023-05-10T09:08:21.312Z,19.15
2023-05-10T09:10:49.790Z,18.90
2023-05-10T09:13:18.204Z,18.72
2023-05-10T09:15:46.619Z,18.46
2023-05-10T09:18:14.217Z,18.25
2023-05-10T09:20:41.990Z,18.21
2023-05-10T09:23:09.390Z,18.33
2023-05-10T09:25:36.736Z,18.35
2023-05-10T09:28:08.626Z,18.40
2023-05-10T09:30:36.483Z,18.31
2023-05-10T09:33:03.966Z,18.32
2023-05-10T09:35:33.498Z,18.47
2023-05-10T09:38:05.426Z,18.55
2023-05-10T09:40:33.139Z,18.64
2023-05-10T09:43:07.038Z,18.93
2023-05-10T09:45:38.282Z,19.22
2023-05-10T09:48:07.177Z,19.53
2023-05-10T09:50:35.286Z,19.56
2023-05-10T09:53:04.693Z,19.57
2023-05-10T09:55:45.869Z,19.45
2023-05-10T09:58:16.876Z,19.08
2023-05-10T10:00:45.873Z,19.32
2023-05-10T10:03:18.413Z,19.24
2023-05-10T10:05:47.164Z,19.12
2023-05-10T10:08:15.753Z,18.98
2023-05-10T10:10:46.474Z,19.02
2023-05-10T10:13:13.918Z,18.93
2023-05-10T10:15:41.086Z,18.71
2023-05-10T10:18:13.529Z,18.70
2023-05-10T10:20:41.191Z,18.64
2023-05-10T10:23:09.391Z,18.50
2023-05-10T10:25:36.988Z,18.40
2023-05-10T10:28:16.868Z,18.44
2023-05-10T10:30:49.650Z,18.30
2023-05-10T10:33:35.338Z,18.42
2023-05-10T10:36:04.731Z,18.33
2023-05-10T10:38:39.591Z,18.39
2023-05-10T10:41:13.276Z,18.40
2023-05-10T10:43:40.375Z,18.35
2023-05-10T10:46:18.896Z,18.36
2023-05-10T10:49:09.681Z,18.26
2023-05-10T10:51:40.803Z,18.34
2023-05-10T10:54:11.815Z,18.47
2023-05-10T10:56:39.364Z,18.48
2023-05-10T10:59:06.415Z,18.48
2023-05-10T11:01:36.620Z,18.53
2023-05-10T11:04:06.721Z,18.51
2023-05-10T11:06:35.962Z,18.46
2023-05-10T11:09:11.228Z,18.44
2023-05-10T11:11:52.015Z,18.43
2023-05-10T11:14:23.598Z,18.33
2023-05-10T11:16:51.395Z,18.11
2023-05-10T11:19:19.519Z,18.21
2023-05-10T11:22:14.283Z,18.23
2023-05-10T11:24:41.410Z,18.24
2023-05-10T11:27:08.925Z,18.26
2023-05-10T11:29:36.217Z,18.19
2023-05-10T11:32:05.572Z,18.26
2023-05-10T11:34:36.389Z,18.20
2023-05-10T11:37:03.461Z,18.11
2023-05-10T11:39:34.717Z,18.09
2023-05-10T11:42:02.013Z,18.15
2023-05-10T11:44:35.580Z,18.09
2023-05-10T11:47:03.442Z,17.83
2023-05-10T11:49:30.872Z,17.90
2023-05-10T11:52:08.286Z,18.09
2023-05-10T11:54:38.638Z,17.99
2023-05-10T11:57:06.036Z,18.07
2023-05-10T11:59:33.053Z,18.01
2023-05-10T12:02:00.486Z,18.06
2023-05-10T12:04:30.657Z,18.04
2023-05-10T12:06:58.076Z,18.01
2023-05-10T12:09:39.742Z,17.86
2023-05-10T12:12:10.191Z,17.74
2023-05-10T12:14:37.736Z,17.66
2023-05-10T12:17:04.758Z,17.62
2023-05-10T12:19:39.630Z,17.64
2023-05-10T12:22:07.374Z,17.60
2023-05-10T12:24:40.241Z,17.59
2023-05-10T12:27:09.435Z,17.60
2023-05-10T12:29:37.097Z,17.64
2023-05-10T12:32:04.364Z,17.65
2023-05-10T12:34:34.907Z,17.56
2023-05-10T12:37:03.542Z,17.69
2023-05-10T12:39:45.083Z,17.70
2023-05-10T12:42:12.868Z,17.75
2023-05-10T12:44:40.942Z,17.77
2023-05-10T12:47:08.409Z,17.47
2023-05-10T12:49:35.546Z,17.78
2023-05-10T12:52:02.856Z,17.80
2023-05-10T12:54:29.999Z,17.72
2023-05-10T12:56:56.997Z,17.82
2023-05-10T12:59:24.059Z,17.76
2023-05-10T13:01:51.222Z,17.63
2023-05-10T13:04:18.315Z,17.65
2023-05-10T13:06:45.532Z,17.58
2023-05-10T13:09:12.656Z,17.58
2023-05-10T13:11:39.869Z,17.62
2023-05-10T13:14:06.871Z,17.63
2023-05-10T13:16:34.289Z,17.65
2023-05-10T13:19:01.445Z,17.70
2023-05-10T13:21:29.002Z,17.70
2023-05-10T13:23:56.649Z,17.77
2023-05-10T13:26:23.644Z,17.72
2023-05-10T13:28:52.794Z,17.69
2023-05-10T13:31:19.997Z,17.61
2023-05-10T13:33:47.116Z,17.63
2023-05-10T13:36:14.320Z,17.57
2023-05-10T13:38:41.378Z,17.56
2023-05-10T13:41:08.489Z,17.58
2023-05-10T13:43:36.147Z,17.52
2023-05-10T13:46:03.982Z,17.45
2023-05-10T13:48:31.214Z,17.41
2023-05-10T13:50:58.320Z,17.53
2023-05-10T13:53:25.684Z,17.53
2023-05-10T13:55:52.852Z,17.53
2023-05-10T13:58:20.334Z,17.52
2023-05-10T14:00:47.395Z,17.43
2023-05-10T14:03:14.459Z,17.52
2023-05-10T14:05:41.552Z,17.39
2023-05-10T14:08:10.435Z,17.52
2023-05-10T14:10:38.026Z,17.47
2023-05-10T14:13:05.205Z,17.28
2023-05-10T14:15:32.231Z,17.30
2023-05-10T14:17:59.579Z,17.34
2023-05-10T14:20:27.131Z,17.37
2023-05-10T14:22:54.096Z,17.34
2023-05-10T14:25:21.397Z,17.40
2023-05-10T14:27:48.416Z,17.39
2023-05-10T14:30:16.106Z,17.19
2023-05-10T14:32:43.334Z,17.35
2023-05-10T14:35:13.104Z,17.35
2023-05-10T14:37:40.660Z,17.29
2023-05-10T14:40:08.477Z,17.25
2023-05-10T14:42:36.062Z,17.13
2023-05-10T14:45:03.442Z,17.20
2023-05-10T14:47:32.681Z,17.10
2023-05-10T14:49:59.798Z,17.17
2023-05-10T14:52:26.957Z,17.13
2023-05-10T14:54:53.933Z,17.21
2023-05-10T14:57:20.943Z,17.18
2023-05-10T14:59:48.433Z,17.14
2023-05-10T15:02:16.392Z,17.04
2023-05-10T15:04:43.877Z,17.00
2023-05-10T15:07:15.385Z,16.95
2023-05-10T15:09:42.456Z,17.06
2023-05-10T15:12:09.447Z,17.03
2023-05-10T15:14:37.468Z,17.09
2023-05-10T15:17:07.389Z,17.04
2023-05-10T15:19:34.452Z,17.06
2023-05-10T15:22:01.440Z,16.99
2023-05-10T15:24:28.611Z,17.09
2023-05-10T15:26:56.117Z,16.97
2023-05-10T15:29:23.297Z,17.02
2023-05-10T15:31:52.108Z,16.99
2023-05-10T15:34:19.768Z,16.93
2023-05-10T15:36:47.167Z,16.91
2023-05-10T15:39:14.241Z,16.86
2023-05-10T15:41:41.571Z,16.85
2023-05-10T15:44:08.572Z,16.78
2023-05-10T15:46:35.868Z,16.82
2023-05-10T15:49:02.984Z,16.83
2023-05-10T15:51:30.129Z,16.77
2023-05-10T15:54:06.404Z,16.85
2023-05-10T15:56:34.663Z,16.80
2023-05-10T15:59:01.816Z,16.48
2023-05-10T16:01:29.314Z,16.75
2023-05-10T16:03:56.672Z,16.71
2023-05-10T16:06:23.626Z,16.59
2023-05-10T16:08:51.373Z,16.37
2023-05-10T16:11:19.016Z,16.68
2023-05-10T16:13:46.156Z,16.64
2023-05-10T16:16:13.411Z,16.65
2023-05-10T16:18:40.652Z,16.61
2023-05-10T16:21:07.806Z,16.61
2023-05-10T16:23:34.881Z,16.58
2023-05-10T16:26:02.323Z,16.54
2023-05-10T16:28:29.295Z,16.54
2023-05-10T16:30:56.344Z,16.52
2023-05-10T16:33:23.401Z,16.51
2023-05-10T16:35:50.434Z,16.47
2023-05-10T16:38:17.431Z,16.45
2023-05-10T16:40:44.447Z,16.44
2023-05-10T16:43:11.431Z,16.42
2023-05-10T16:45:38.581Z,16.36
2023-05-10T16:48:06.461Z,16.38
2023-05-10T16:50:33.577Z,15.95
2023-05-10T16:53:00.831Z,16.28
2023-05-10T16:55:28.004Z,16.26
2023-05-10T16:57:59.866Z,16.06
2023-05-10T17:00:27.519Z,16.21
2023-05-10T17:02:55.083Z,16.18
2023-05-10T17:05:22.838Z,16.13
2023-05-10T17:07:50.644Z,16.00
2023-05-10T17:10:18.114Z,16.03
2023-05-10T17:12:45.752Z,16.05
2023-05-10T17:15:13.143Z,15.98
2023-05-10T17:17:40.402Z,15.80
2023-05-10T17:20:08.463Z,15.89
2023-05-10T17:22:36.024Z,15.86
2023-05-10T17:25:04.333Z,15.78
2023-05-10T17:27:32.191Z,15.78
2023-05-10T17:29:59.731Z,15.77
2023-05-10T17:32:27.056Z,15.74
2023-05-10T17:34:54.130Z,15.68
2023-05-10T17:37:21.201Z,15.68
2023-05-10T17:39:48.254Z,15.64
2023-05-10T17:42:17.673Z,15.59
2023-05-10T17:44:44.661Z,15.60
2023-05-10T17:47:11.734Z,15.51
2023-05-10T17:49:39.914Z,15.22
2023-05-10T17:52:07.539Z,15.22
2023-05-10T17:54:34.933Z,15.20
2023-05-10T17:57:02.198Z,15.17
2023-05-10T17:59:29.469Z,15.15
2023-05-10T18:01:56.643Z,15.18
2023-05-10T18:04:23.947Z,15.17
2023-05-10T18:06:51.124Z,15.13
2023-05-10T18:09:18.418Z,15.15
2023-05-10T18:11:45.460Z,14.82
2023-05-10T18:14:12.533Z,15.09
2023-05-10T18:16:39.580Z,15.08
2023-05-10T18:19:06.702Z,15.07
2023-05-10T18:21:33.996Z,14.99
2023-05-10T18:24:01.822Z,15.05
2023-05-10T18:26:29.022Z,15.01
2023-05-10T18:28:56.020Z,14.99
2023-05-10T18:31:23.955Z,14.84
2023-05-10T18:33:51.131Z,14.85
2023-05-10T18:36:18.245Z,14.83
2023-05-10T18:38:45.773Z,14.82
2023-05-10T18:41:14.608Z,14.83
2023-05-10T18:43:42.812Z,14.73
2023-05-10T18:46:09.901Z,14.85
2023-05-10T18:48:36.942Z,14.76
2023-05-10T18:51:04.411Z,14.78
2023-05-10T18:53:32.666Z,14.64
2023-05-10T18:56:00.220Z,14.72
2023-05-10T18:58:28.356Z,14.71
2023-05-10T19:00:55.730Z,14.68
2023-05-10T19:03:22.987Z,14.62
2023-05-10T19:05:50.095Z,14.61
2023-05-10T19:08:17.598Z,14.61
2023-05-10T19:10:45.911Z,14.53
2023-05-10T19:13:13.040Z,14.52
2023-05-10T19:15:40.921Z,14.60
2023-05-10T19:18:08.727Z,14.57
2023-05-10T19:20:38.163Z,14.55
2023-05-10T19:23:10.037Z,14.52
2023-05-10T19:25:37.591Z,14.45
2023-05-10T19:28:04.697Z,14.44
2023-05-10T19:30:31.906Z,14.33
2023-05-10T19:32:59.000Z,14.48
2023-05-10T19:35:26.179Z,14.47
2023-05-10T19:37:53.325Z,14.41
2023-05-10T19:40:20.451Z,14.33
2023-05-10T19:42:47.699Z,14.32
2023-05-10T19:45:15.997Z,14.20
2023-05-10T19:47:43.562Z,14.32
2023-05-10T19:50:12.512Z,14.22
2023-05-10T19:52:39.914Z,14.29
2023-05-10T19:55:08.027Z,14.21
2023-05-10T19:57:35.146Z,14.20
2023-05-10T20:00:02.609Z,13.78
2023-05-10T20:02:38.629Z,14.13
2023-05-10T20:05:05.987Z,14.20
2023-05-10T20:07:33.018Z,13.80
2023-05-10T20:10:00.160Z,14.22
2023-05-10T20:12:27.939Z,14.17
2023-05-10T20:14:54.961Z,14.13
2023-05-10T20:17:22.084Z,14.14
2023-05-10T20:19:49.150Z,14.14
2023-05-10T20:22:16.192Z,14.12
2023-05-10T20:24:43.242Z,14.01
2023-05-10T20:27:10.240Z,13.90
2023-05-10T20:29:37.218Z,13.92
2023-05-10T20:32:04.402Z,13.90
2023-05-10T20:34:31.573Z,13.94
2023-05-10T20:36:58.713Z,13.86
2023-05-10T20:39:25.873Z,13.99
2023-05-10T20:41:54.710Z,13.99
2023-05-10T20:44:21.712Z,13.90
2023-05-10T20:46:48.924Z,13.88
2023-05-10T20:49:16.009Z,13.89
2023-05-10T20:51:43.145Z,13.91
2023-05-10T20:54:10.282Z,13.91
2023-05-10T20:56:37.355Z,13.83
2023-05-10T20:59:04.456Z,13.75
2023-05-10T21:01:31.994Z,13.75
2023-05-10T21:03:59.112Z,13.82
2023-05-10T21:06:26.410Z,13.76
2023-05-10T21:08:53.474Z,13.74
2023-05-10T21:11:20.907Z,13.73
2023-05-10T21:13:49.055Z,13.72
2023-05-10T21:16:16.127Z,13.73
2023-05-10T21:18:43.281Z,13.72
2023-05-10T21:21:10.386Z,13.71
2023-05-10T21:23:37.421Z,13.61
2023-05-10T21:26:04.972Z,13.72
2023-05-10T21:28:32.078Z,13.56
2023-05-10T21:30:59.123Z,13.18
2023-05-10T21:33:26.172Z,13.59
2023-05-10T21:35:53.256Z,13.58
2023-05-10T21:38:20.347Z,13.62
2023-05-10T21:40:47.388Z,13.62
2023-05-10T21:43:14.437Z,13.53
2023-05-10T21:45:41.503Z,13.59
2023-05-10T21:48:08.604Z,13.57
2023-05-10T21:50:35.705Z,13.51
2023-05-10T21:53:03.055Z,13.42
2023-05-10T21:55:30.092Z,13.50
2023-05-10T21:57:58.751Z,13.39
2023-05-10T22:00:26.612Z,13.42
2023-05-10T22:02:53.860Z,13.37
2023-05-10T22:05:21.333Z,13.36
2023-05-10T22:07:48.296Z,13.27
2023-05-10T22:10:15.722Z,13.41
2023-05-10T22:12:42.838Z,13.39
2023-05-10T22:15:10.958Z,13.33
2023-05-10T22:17:40.106Z,13.42
2023-05-10T22:20:08.776Z,13.34
2023-05-10T22:22:36.899Z,13.39
2023-05-10T22:25:07.344Z,13.29
2023-05-10T22:27:35.108Z,13.27
2023-05-10T22:30:02.929Z,13.31
2023-05-10T22:32:36.005Z,13.27
2023-05-10T22:35:03.468Z,13.21
2023-05-10T22:37:32.811Z,13.21
2023-05-10T22:39:59.884Z,13.19
2023-05-10T22:42:26.831Z,13.15
2023-05-10T22:44:53.883Z,13.14
2023-05-10T22:47:21.022Z,13.17
2023-05-10T22:49:48.518Z,13.18
2023-05-10T22:52:15.641Z,13.18
2023-05-10T22:54:42.811Z,13.18
2023-05-10T22:57:09.770Z,12.37
2023-05-10T22:59:36.795Z,12.93
2023-05-10T23:02:04.014Z,13.13
2023-05-10T23:04:31.122Z,13.13
2023-05-10T23:06:58.112Z,13.12
2023-05-10T23:09:25.075Z,13.02
2023-05-10T23:11:52.106Z,13.05
2023-05-10T23:14:19.149Z,12.96
2023-05-10T23:16:46.284Z,12.94
2023-05-10T23:19:13.380Z,13.00
2023-05-10T23:21:40.967Z,13.02
2023-05-10T23:24:08.694Z,12.88
2023-05-10T23:26:36.118Z,12.95
2023-05-10T23:29:03.125Z,12.94
2023-05-10T23:31:30.529Z,12.90
2023-05-10T23:33:57.583Z,12.86
2023-05-10T23:36:24.606Z,12.90
2023-05-10T23:38:51.630Z,12.88
2023-05-10T23:41:18.970Z,12.90
2023-05-10T23:43:45.969Z,12.88
2023-05-10T23:46:13.035Z,12.81
2023-05-10T23:48:40.097Z,12.81
2023-05-10T23:51:08.080Z,12.59
2023-05-10T23:53:35.184Z,12.64
2023-05-10T23:56:02.222Z,12.59
2023-05-10T23:58:29.675Z,12.51
